sensor_id;sensor_type;location;lat;lon;timestamp;P1;durP1;ratioP1;P2;durP2;ratioP2
52186;SDS011;38161;53.020;6.598;2023-04-24T00:00:09;2.70;;;1.33;;
52186;SDS011;38161;53.020;6.598;2023-04-24T00:02:39;2.63;;;1.00;;
52186;SDS011;38161;53.020;6.598;2023-04-24T00:05:05;3.28;;;0.90;;
52186;SDS011;38161;53.020;6.598;2023-04-24T00:07:32;3.15;;;1.00;;
52186;SDS011;38161;53.020;6.598;2023-04-24T00:09:58;1.98;;;0.90;;
52186;SDS011;38161;53.020;6.598;2023-04-24T00:12:25;2.83;;;0.95;;
52186;SDS011;38161;53.020;6.598;2023-04-24T00:14:51;1.33;;;0.90;;
52186;SDS011;38161;53.020;6.598;2023-04-24T00:17:16;2.40;;;1.15;;
52186;SDS011;38161;53.020;6.598;2023-04-24T00:19:46;1.25;;;0.95;;
52186;SDS011;38161;53.020;6.598;2023-04-24T00:22:12;2.72;;;1.08;;
52186;SDS011;38161;53.020;6.598;2023-04-24T00:24:39;1.00;;;0.90;;
52186;SDS011;38161;53.020;6.598;2023-04-24T00:27:05;2.75;;;1.00;;
52186;SDS011;38161;53.020;6.598;2023-04-24T00:29:31;1.73;;;1.00;;
52186;SDS011;38161;53.020;6.598;2023-04-24T00:31:57;1.27;;;0.90;;
52186;SDS011;38161;53.020;6.598;2023-04-24T00:34:23;1.23;;;1.13;;
52186;SDS011;38161;53.020;6.598;2023-04-24T00:36:49;1.70;;;1.00;;
52186;SDS011;38161;53.020;6.598;2023-04-24T00:39:20;2.50;;;1.10;;
52186;SDS011;38161;53.020;6.598;2023-04-24T00:41:46;1.95;;;1.10;;
52186;SDS011;38161;53.020;6.598;2023-04-24T00:44:13;2.40;;;1.10;;
52186;SDS011;38161;53.020;6.598;2023-04-24T00:46:39;1.55;;;1.02;;
52186;SDS011;38161;53.020;6.598;2023-04-24T00:49:06;1.52;;;1.20;;
52186;SDS011;38161;53.020;6.598;2023-04-24T00:51:32;4.00;;;1.35;;
52186;SDS011;38161;53.020;6.598;2023-04-24T00:53:58;3.53;;;1.25;;
52186;SDS011;38161;53.020;6.598;2023-04-24T00:56:25;1.85;;;1.50;;
52186;SDS011;38161;53.020;6.598;2023-04-24T00:58:51;1.42;;;1.30;;
52186;SDS011;38161;53.020;6.598;2023-04-24T01:01:20;2.97;;;1.50;;
52186;SDS011;38161;53.020;6.598;2023-04-24T01:03:47;2.83;;;1.33;;
52186;SDS011;38161;53.020;6.598;2023-04-24T01:06:16;1.52;;;1.40;;
52186;SDS011;38161;53.020;6.598;2023-04-24T01:08:43;2.67;;;1.67;;
52186;SDS011;38161;53.020;6.598;2023-04-24T01:11:11;1.95;;;1.70;;
52186;SDS011;38161;53.020;6.598;2023-04-24T01:13:37;2.13;;;1.70;;
52186;SDS011;38161;53.020;6.598;2023-04-24T01:16:03;1.95;;;1.42;;
52186;SDS011;38161;53.020;6.598;2023-04-24T01:18:29;3.03;;;2.15;;
52186;SDS011;38161;53.020;6.598;2023-04-24T01:20:58;1.52;;;1.42;;
52186;SDS011;38161;53.020;6.598;2023-04-24T01:23:28;3.38;;;2.30;;
52186;SDS011;38161;53.020;6.598;2023-04-24T01:25:54;3.28;;;2.30;;
52186;SDS011;38161;53.020;6.598;2023-04-24T01:28:20;3.47;;;2.35;;
52186;SDS011;38161;53.020;6.598;2023-04-24T01:30:46;4.50;;;2.70;;
52186;SDS011;38161;53.020;6.598;2023-04-24T01:33:12;4.10;;;2.50;;
52186;SDS011;38161;53.020;6.598;2023-04-24T01:35:38;3.80;;;2.75;;
52186;SDS011;38161;53.020;6.598;2023-04-24T01:38:05;3.55;;;2.88;;
52186;SDS011;38161;53.020;6.598;2023-04-24T01:40:31;4.10;;;3.13;;
52186;SDS011;38161;53.020;6.598;2023-04-24T01:42:57;4.15;;;3.38;;
52186;SDS011;38161;53.020;6.598;2023-04-24T01:45:23;4.28;;;3.60;;
52186;SDS011;38161;53.020;6.598;2023-04-24T01:47:50;6.63;;;4.35;;
52186;SDS011;38161;53.020;6.598;2023-04-24T01:50:16;5.13;;;4.10;;
52186;SDS011;38161;53.020;6.598;2023-04-24T01:52:42;8.13;;;4.70;;
52186;SDS011;38161;53.020;6.598;2023-04-24T01:55:08;6.95;;;4.65;;
52186;SDS011;38161;53.020;6.598;2023-04-24T01:57:35;6.28;;;4.47;;
52186;SDS011;38161;53.020;6.598;2023-04-24T02:00:01;4.88;;;3.85;;
52186;SDS011;38161;53.020;6.598;2023-04-24T02:02:29;7.47;;;5.05;;
52186;SDS011;38161;53.020;6.598;2023-04-24T02:04:55;7.57;;;5.30;;
52186;SDS011;38161;53.020;6.598;2023-04-24T02:07:21;6.35;;;5.53;;
52186;SDS011;38161;53.020;6.598;2023-04-24T02:09:47;8.95;;;6.57;;
52186;SDS011;38161;53.020;6.598;2023-04-24T02:12:14;12.80;;;6.50;;
52186;SDS011;38161;53.020;6.598;2023-04-24T02:17:07;7.57;;;6.00;;
52186;SDS011;38161;53.020;6.598;2023-04-24T02:19:33;6.57;;;5.60;;
52186;SDS011;38161;53.020;6.598;2023-04-24T02:21:58;5.82;;;4.97;;
52186;SDS011;38161;53.020;6.598;2023-04-24T02:24:24;9.75;;;6.32;;
52186;SDS011;38161;53.020;6.598;2023-04-24T02:26:50;8.18;;;6.88;;
52186;SDS011;38161;53.020;6.598;2023-04-24T02:29:16;10.10;;;6.67;;
52186;SDS011;38161;53.020;6.598;2023-04-24T02:31:42;9.90;;;6.53;;
52186;SDS011;38161;53.020;6.598;2023-04-24T02:34:07;7.33;;;6.47;;
52186;SDS011;38161;53.020;6.598;2023-04-24T02:36:34;9.27;;;6.72;;
52186;SDS011;38161;53.020;6.598;2023-04-24T02:38:59;7.82;;;5.85;;
52186;SDS011;38161;53.020;6.598;2023-04-24T02:41:26;11.43;;;8.00;;
52186;SDS011;38161;53.020;6.598;2023-04-24T02:43:57;8.90;;;8.00;;
52186;SDS011;38161;53.020;6.598;2023-04-24T02:48:49;9.38;;;8.45;;
52186;SDS011;38161;53.020;6.598;2023-04-24T02:51:15;8.95;;;8.05;;
52186;SDS011;38161;53.020;6.598;2023-04-24T02:53:41;12.33;;;8.40;;
52186;SDS011;38161;53.020;6.598;2023-04-24T02:56:06;10.83;;;9.57;;
52186;SDS011;38161;53.020;6.598;2023-04-24T02:58:32;9.07;;;7.82;;
52186;SDS011;38161;53.020;6.598;2023-04-24T03:00:58;9.27;;;8.27;;
52186;SDS011;38161;53.020;6.598;2023-04-24T03:03:25;9.30;;;8.27;;
52186;SDS011;38161;53.020;6.598;2023-04-24T03:05:51;9.48;;;8.48;;
52186;SDS011;38161;53.020;6.598;2023-04-24T03:08:16;11.80;;;6.80;;
52186;SDS011;38161;53.020;6.598;2023-04-24T03:10:42;10.20;;;6.38;;
52186;SDS011;38161;53.020;6.598;2023-04-24T03:13:08;7.68;;;6.85;;
52186;SDS011;38161;53.020;6.598;2023-04-24T03:15:34;7.57;;;5.77;;
52186;SDS011;38161;53.020;6.598;2023-04-24T03:18:00;6.20;;;5.47;;
52186;SDS011;38161;53.020;6.598;2023-04-24T03:20:26;7.07;;;5.80;;
52186;SDS011;38161;53.020;6.598;2023-04-24T03:22:51;7.18;;;5.57;;
52186;SDS011;38161;53.020;6.598;2023-04-24T03:25:17;6.53;;;5.82;;
52186;SDS011;38161;53.020;6.598;2023-04-24T03:27:43;8.00;;;6.00;;
52186;SDS011;38161;53.020;6.598;2023-04-24T03:30:09;7.43;;;5.43;;
52186;SDS011;38161;53.020;6.598;2023-04-24T03:32:35;5.80;;;5.00;;
52186;SDS011;38161;53.020;6.598;2023-04-24T03:35:01;6.00;;;5.40;;
52186;SDS011;38161;53.020;6.598;2023-04-24T03:37:28;6.13;;;5.00;;
52186;SDS011;38161;53.020;6.598;2023-04-24T03:39:54;5.80;;;4.97;;
52186;SDS011;38161;53.020;6.598;2023-04-24T03:42:19;5.90;;;4.85;;
52186;SDS011;38161;53.020;6.598;2023-04-24T03:44:45;5.00;;;4.47;;
52186;SDS011;38161;53.020;6.598;2023-04-24T03:47:11;4.70;;;3.70;;
52186;SDS011;38161;53.020;6.598;2023-04-24T03:49:37;5.37;;;3.90;;
52186;SDS011;38161;53.020;6.598;2023-04-24T03:52:02;4.80;;;3.80;;
52186;SDS011;38161;53.020;6.598;2023-04-24T03:54:28;9.33;;;4.13;;
52186;SDS011;38161;53.020;6.598;2023-04-24T03:56:54;4.57;;;3.55;;
52186;SDS011;38161;53.020;6.598;2023-04-24T03:59:20;6.07;;;3.47;;
52186;SDS011;38161;53.020;6.598;2023-04-24T04:01:45;4.67;;;3.90;;
52186;SDS011;38161;53.020;6.598;2023-04-24T04:04:11;5.32;;;4.50;;
52186;SDS011;38161;53.020;6.598;2023-04-24T04:06:37;4.75;;;3.90;;
52186;SDS011;38161;53.020;6.598;2023-04-24T04:09:03;5.07;;;4.30;;
52186;SDS011;38161;53.020;6.598;2023-04-24T04:11:28;5.30;;;4.07;;
52186;SDS011;38161;53.020;6.598;2023-04-24T04:13:55;6.43;;;4.85;;
52186;SDS011;38161;53.020;6.598;2023-04-24T04:16:22;5.40;;;4.15;;
52186;SDS011;38161;53.020;6.598;2023-04-24T04:18:47;5.72;;;4.47;;
52186;SDS011;38161;53.020;6.598;2023-04-24T04:21:13;5.70;;;4.68;;
52186;SDS011;38161;53.020;6.598;2023-04-24T04:23:39;6.25;;;5.20;;
52186;SDS011;38161;53.020;6.598;2023-04-24T04:26:05;6.32;;;5.43;;
52186;SDS011;38161;53.020;6.598;2023-04-24T04:28:31;5.38;;;4.82;;
52186;SDS011;38161;53.020;6.598;2023-04-24T04:30:57;5.82;;;4.90;;
52186;SDS011;38161;53.020;6.598;2023-04-24T04:33:23;5.68;;;4.50;;
52186;SDS011;38161;53.020;6.598;2023-04-24T04:35:50;6.32;;;5.40;;
52186;SDS011;38161;53.020;6.598;2023-04-24T04:38:21;5.18;;;4.25;;
52186;SDS011;38161;53.020;6.598;2023-04-24T04:40:47;8.63;;;3.85;;
52186;SDS011;38161;53.020;6.598;2023-04-24T04:43:13;5.72;;;4.00;;
52186;SDS011;38161;53.020;6.598;2023-04-24T04:45:42;7.15;;;4.00;;
52186;SDS011;38161;53.020;6.598;2023-04-24T04:48:08;4.20;;;3.10;;
52186;SDS011;38161;53.020;6.598;2023-04-24T04:50:37;3.70;;;2.88;;
52186;SDS011;38161;53.020;6.598;2023-04-24T04:53:03;4.03;;;2.78;;
52186;SDS011;38161;53.020;6.598;2023-04-24T04:55:30;2.30;;;1.85;;
52186;SDS011;38161;53.020;6.598;2023-04-24T04:57:56;2.97;;;2.03;;
52186;SDS011;38161;53.020;6.598;2023-04-24T05:00:22;2.72;;;1.20;;
52186;SDS011;38161;53.020;6.598;2023-04-24T05:02:50;1.75;;;1.20;;
52186;SDS011;38161;53.020;6.598;2023-04-24T05:05:16;1.17;;;1.00;;
52186;SDS011;38161;53.020;6.598;2023-04-24T05:07:43;1.42;;;1.20;;
52186;SDS011;38161;53.020;6.598;2023-04-24T05:10:09;1.92;;;1.50;;
52186;SDS011;38161;53.020;6.598;2023-04-24T05:12:36;2.33;;;1.35;;
52186;SDS011;38161;53.020;6.598;2023-04-24T05:15:02;2.17;;;1.40;;
52186;SDS011;38161;53.020;6.598;2023-04-24T05:17:28;1.67;;;1.23;;
52186;SDS011;38161;53.020;6.598;2023-04-24T05:19:54;2.38;;;1.15;;
52186;SDS011;38161;53.020;6.598;2023-04-24T05:22:20;2.35;;;1.50;;
52186;SDS011;38161;53.020;6.598;2023-04-24T05:24:46;2.42;;;1.40;;
52186;SDS011;38161;53.020;6.598;2023-04-24T05:27:12;1.52;;;1.20;;
52186;SDS011;38161;53.020;6.598;2023-04-24T05:29:38;1.75;;;1.50;;
52186;SDS011;38161;53.020;6.598;2023-04-24T05:32:05;2.30;;;1.90;;
52186;SDS011;38161;53.020;6.598;2023-04-24T05:34:31;3.30;;;1.92;;
52186;SDS011;38161;53.020;6.598;2023-04-24T05:36:57;2.08;;;1.70;;
52186;SDS011;38161;53.020;6.598;2023-04-24T05:39:22;2.47;;;1.80;;
52186;SDS011;38161;53.020;6.598;2023-04-24T05:41:50;2.67;;;2.10;;
52186;SDS011;38161;53.020;6.598;2023-04-24T05:44:16;4.28;;;2.20;;
52186;SDS011;38161;53.020;6.598;2023-04-24T05:46:42;3.10;;;2.05;;
52186;SDS011;38161;53.020;6.598;2023-04-24T05:49:08;3.45;;;2.05;;
52186;SDS011;38161;53.020;6.598;2023-04-24T05:51:33;2.43;;;2.10;;
52186;SDS011;38161;53.020;6.598;2023-04-24T05:53:59;2.90;;;2.03;;
52186;SDS011;38161;53.020;6.598;2023-04-24T05:56:26;3.00;;;2.05;;
52186;SDS011;38161;53.020;6.598;2023-04-24T05:58:52;3.03;;;2.27;;
52186;SDS011;38161;53.020;6.598;2023-04-24T06:01:17;3.30;;;2.30;;
52186;SDS011;38161;53.020;6.598;2023-04-24T06:03:44;3.63;;;2.40;;
52186;SDS011;38161;53.020;6.598;2023-04-24T06:06:10;2.95;;;2.15;;
52186;SDS011;38161;53.020;6.598;2023-04-24T06:08:36;3.60;;;2.30;;
52186;SDS011;38161;53.020;6.598;2023-04-24T06:11:02;5.27;;;2.10;;
52186;SDS011;38161;53.020;6.598;2023-04-24T06:13:27;2.73;;;2.17;;
52186;SDS011;38161;53.020;6.598;2023-04-24T06:15:53;5.60;;;2.70;;
52186;SDS011;38161;53.020;6.598;2023-04-24T06:18:19;3.50;;;2.38;;
52186;SDS011;38161;53.020;6.598;2023-04-24T06:20:45;3.10;;;1.90;;
52186;SDS011;38161;53.020;6.598;2023-04-24T06:23:11;3.00;;;1.70;;
52186;SDS011;38161;53.020;6.598;2023-04-24T06:25:37;2.30;;;1.60;;
52186;SDS011;38161;53.020;6.598;2023-04-24T06:28:03;2.28;;;1.23;;
52186;SDS011;38161;53.020;6.598;2023-04-24T06:30:30;1.95;;;1.42;;
52186;SDS011;38161;53.020;6.598;2023-04-24T06:32:56;2.00;;;1.40;;
52186;SDS011;38161;53.020;6.598;2023-04-24T06:35:22;4.05;;;2.22;;
52186;SDS011;38161;53.020;6.598;2023-04-24T06:37:47;4.00;;;2.50;;
52186;SDS011;38161;53.020;6.598;2023-04-24T06:40:13;4.05;;;2.25;;
52186;SDS011;38161;53.020;6.598;2023-04-24T06:42:39;4.63;;;2.85;;
52186;SDS011;38161;53.020;6.598;2023-04-24T06:45:05;4.37;;;2.47;;
52186;SDS011;38161;53.020;6.598;2023-04-24T06:47:31;7.25;;;3.20;;
52186;SDS011;38161;53.020;6.598;2023-04-24T06:49:58;5.43;;;3.20;;
52186;SDS011;38161;53.020;6.598;2023-04-24T06:52:24;4.50;;;3.10;;
52186;SDS011;38161;53.020;6.598;2023-04-24T06:54:50;8.38;;;3.67;;
52186;SDS011;38161;53.020;6.598;2023-04-24T06:57:15;5.63;;;3.40;;
52186;SDS011;38161;53.020;6.598;2023-04-24T07:02:08;6.00;;;3.85;;
52186;SDS011;38161;53.020;6.598;2023-04-24T07:04:34;6.55;;;3.90;;
52186;SDS011;38161;53.020;6.598;2023-04-24T07:07:00;6.70;;;4.35;;
52186;SDS011;38161;53.020;6.598;2023-04-24T07:09:26;5.93;;;4.03;;
52186;SDS011;38161;53.020;6.598;2023-04-24T07:11:52;7.68;;;4.07;;
52186;SDS011;38161;53.020;6.598;2023-04-24T07:14:18;5.38;;;3.83;;
52186;SDS011;38161;53.020;6.598;2023-04-24T07:16:45;6.55;;;3.55;;
52186;SDS011;38161;53.020;6.598;2023-04-24T07:19:11;7.30;;;3.75;;
52186;SDS011;38161;53.020;6.598;2023-04-24T07:21:38;4.40;;;2.75;;
52186;SDS011;38161;53.020;6.598;2023-04-24T07:24:04;7.53;;;3.65;;
52186;SDS011;38161;53.020;6.598;2023-04-24T07:26:34;6.30;;;3.42;;
52186;SDS011;38161;53.020;6.598;2023-04-24T07:29:00;5.93;;;3.90;;
52186;SDS011;38161;53.020;6.598;2023-04-24T07:31:26;5.67;;;3.00;;
52186;SDS011;38161;53.020;6.598;2023-04-24T07:33:52;3.83;;;2.50;;
52186;SDS011;38161;53.020;6.598;2023-04-24T07:36:17;4.55;;;2.22;;
52186;SDS011;38161;53.020;6.598;2023-04-24T07:38:47;3.20;;;1.83;;
52186;SDS011;38161;53.020;6.598;2023-04-24T07:41:13;7.18;;;2.33;;
52186;SDS011;38161;53.020;6.598;2023-04-24T07:43:39;3.53;;;1.80;;
52186;SDS011;38161;53.020;6.598;2023-04-24T07:46:06;3.15;;;1.90;;
52186;SDS011;38161;53.020;6.598;2023-04-24T07:50:58;4.97;;;1.88;;
52186;SDS011;38161;53.020;6.598;2023-04-24T07:53:24;4.37;;;1.87;;
52186;SDS011;38161;53.020;6.598;2023-04-24T07:55:49;4.45;;;2.13;;
52186;SDS011;38161;53.020;6.598;2023-04-24T07:58:18;5.72;;;2.10;;
52186;SDS011;38161;53.020;6.598;2023-04-24T08:00:44;5.85;;;2.47;;
52186;SDS011;38161;53.020;6.598;2023-04-24T08:03:10;8.90;;;2.37;;
52186;SDS011;38161;53.020;6.598;2023-04-24T08:05:40;6.20;;;2.42;;
52186;SDS011;38161;53.020;6.598;2023-04-24T08:08:08;6.43;;;2.38;;
52186;SDS011;38161;53.020;6.598;2023-04-24T08:10:33;4.80;;;1.95;;
52186;SDS011;38161;53.020;6.598;2023-04-24T08:12:59;6.50;;;2.37;;
52186;SDS011;38161;53.020;6.598;2023-04-24T08:15:26;6.70;;;2.92;;
52186;SDS011;38161;53.020;6.598;2023-04-24T08:17:52;8.18;;;4.10;;
52186;SDS011;38161;53.020;6.598;2023-04-24T08:20:18;11.60;;;5.77;;
52186;SDS011;38161;53.020;6.598;2023-04-24T08:22:44;10.45;;;6.25;;
52186;SDS011;38161;53.020;6.598;2023-04-24T08:25:12;17.58;;;9.15;;
52186;SDS011;38161;53.020;6.598;2023-04-24T08:27:38;13.43;;;7.53;;
52186;SDS011;38161;53.020;6.598;2023-04-24T08:30:04;18.08;;;9.55;;
52186;SDS011;38161;53.020;6.598;2023-04-24T08:32:31;20.23;;;9.23;;
52186;SDS011;38161;53.020;6.598;2023-04-24T08:34:57;18.15;;;9.45;;
52186;SDS011;38161;53.020;6.598;2023-04-24T08:37:24;20.85;;;11.32;;
52186;SDS011;38161;53.020;6.598;2023-04-24T08:39:50;22.92;;;12.07;;
52186;SDS011;38161;53.020;6.598;2023-04-24T08:42:17;24.98;;;13.32;;
52186;SDS011;38161;53.020;6.598;2023-04-24T08:44:48;24.60;;;11.43;;
52186;SDS011;38161;53.020;6.598;2023-04-24T08:47:14;24.27;;;11.55;;
52186;SDS011;38161;53.020;6.598;2023-04-24T08:49:41;28.00;;;12.32;;
52186;SDS011;38161;53.020;6.598;2023-04-24T08:52:07;21.50;;;10.93;;
52186;SDS011;38161;53.020;6.598;2023-04-24T08:54:34;16.73;;;11.05;;
52186;SDS011;38161;53.020;6.598;2023-04-24T08:57:01;20.15;;;11.20;;
52186;SDS011;38161;53.020;6.598;2023-04-24T08:59:28;21.92;;;11.80;;
52186;SDS011;38161;53.020;6.598;2023-04-24T09:04:21;24.48;;;12.88;;
52186;SDS011;38161;53.020;6.598;2023-04-24T09:06:49;22.67;;;12.63;;
52186;SDS011;38161;53.020;6.598;2023-04-24T09:09:22;22.52;;;12.27;;
52186;SDS011;38161;53.020;6.598;2023-04-24T09:11:50;20.83;;;12.85;;
52186;SDS011;38161;53.020;6.598;2023-04-24T09:14:18;24.23;;;12.98;;
52186;SDS011;38161;53.020;6.598;2023-04-24T09:16:45;21.85;;;12.57;;
52186;SDS011;38161;53.020;6.598;2023-04-24T09:19:11;27.27;;;14.85;;
52186;SDS011;38161;53.020;6.598;2023-04-24T09:21:37;21.17;;;13.23;;
52186;SDS011;38161;53.020;6.598;2023-04-24T09:24:05;26.67;;;14.02;;
52186;SDS011;38161;53.020;6.598;2023-04-24T09:26:33;21.38;;;13.27;;
52186;SDS011;38161;53.020;6.598;2023-04-24T09:29:00;27.15;;;13.45;;
52186;SDS011;38161;53.020;6.598;2023-04-24T09:31:28;21.58;;;13.77;;
52186;SDS011;38161;53.020;6.598;2023-04-24T09:33:55;18.52;;;11.85;;
52186;SDS011;38161;53.020;6.598;2023-04-24T09:38:58;25.02;;;11.80;;
52186;SDS011;38161;53.020;6.598;2023-04-24T09:41:24;22.55;;;11.60;;
52186;SDS011;38161;53.020;6.598;2023-04-24T09:43:53;19.80;;;11.23;;
52186;SDS011;38161;53.020;6.598;2023-04-24T09:46:20;19.13;;;11.00;;
52186;SDS011;38161;53.020;6.598;2023-04-24T09:48:49;15.90;;;10.85;;
52186;SDS011;38161;53.020;6.598;2023-04-24T09:51:14;19.17;;;10.45;;
52186;SDS011;38161;53.020;6.598;2023-04-24T09:53:45;16.15;;;9.35;;
52186;SDS011;38161;53.020;6.598;2023-04-24T09:56:11;20.77;;;10.15;;
52186;SDS011;38161;53.020;6.598;2023-04-24T09:58:38;14.57;;;9.60;;
52186;SDS011;38161;53.020;6.598;2023-04-24T10:01:04;18.77;;;10.30;;
52186;SDS011;38161;53.020;6.598;2023-04-24T10:03:30;19.55;;;10.65;;
52186;SDS011;38161;53.020;6.598;2023-04-24T10:06:01;18.42;;;9.05;;
52186;SDS011;38161;53.020;6.598;2023-04-24T10:08:32;22.63;;;9.13;;
52186;SDS011;38161;53.020;6.598;2023-04-24T10:10:59;17.55;;;8.48;;
52186;SDS011;38161;53.020;6.598;2023-04-24T10:13:26;17.98;;;7.82;;
52186;SDS011;38161;53.020;6.598;2023-04-24T10:15:53;16.80;;;8.55;;
52186;SDS011;38161;53.020;6.598;2023-04-24T10:18:20;15.43;;;7.63;;
52186;SDS011;38161;53.020;6.598;2023-04-24T10:23:12;19.33;;;7.65;;
52186;SDS011;38161;53.020;6.598;2023-04-24T10:25:38;14.57;;;7.47;;
52186;SDS011;38161;53.020;6.598;2023-04-24T10:28:04;20.50;;;7.90;;
52186;SDS011;38161;53.020;6.598;2023-04-24T10:33:03;13.98;;;7.13;;
52186;SDS011;38161;53.020;6.598;2023-04-24T10:35:30;22.58;;;6.18;;
52186;SDS011;38161;53.020;6.598;2023-04-24T10:38:01;15.18;;;6.22;;
52186;SDS011;38161;53.020;6.598;2023-04-24T10:40:34;15.85;;;6.15;;
52186;SDS011;38161;53.020;6.598;2023-04-24T10:43:07;15.38;;;5.60;;
52186;SDS011;38161;53.020;6.598;2023-04-24T10:45:36;17.00;;;5.22;;
52186;SDS011;38161;53.020;6.598;2023-04-24T10:48:04;16.25;;;5.35;;
52186;SDS011;38161;53.020;6.598;2023-04-24T10:50:43;16.65;;;5.38;;
52186;SDS011;38161;53.020;6.598;2023-04-24T10:53:19;11.15;;;4.32;;
52186;SDS011;38161;53.020;6.598;2023-04-24T10:55:51;10.30;;;4.55;;
52186;SDS011;38161;53.020;6.598;2023-04-24T10:58:26;7.85;;;4.07;;
52186;SDS011;38161;53.020;6.598;2023-04-24T11:01:06;8.75;;;3.88;;
52186;SDS011;38161;53.020;6.598;2023-04-24T11:03:32;9.48;;;3.90;;
52186;SDS011;38161;53.020;6.598;2023-04-24T11:06:06;8.40;;;3.30;;
52186;SDS011;38161;53.020;6.598;2023-04-24T11:08:38;7.70;;;2.95;;
52186;SDS011;38161;53.020;6.598;2023-04-24T11:11:08;6.63;;;2.92;;
52186;SDS011;38161;53.020;6.598;2023-04-24T11:24:24;12.65;;;3.90;;
52186;SDS011;38161;53.020;6.598;2023-04-24T11:27:01;11.67;;;2.80;;
52186;SDS011;38161;53.020;6.598;2023-04-24T11:34:53;8.48;;;2.80;;
52186;SDS011;38161;53.020;6.598;2023-04-24T11:37:24;8.98;;;2.90;;
52186;SDS011;38161;53.020;6.598;2023-04-24T11:39:58;7.80;;;2.25;;
52186;SDS011;38161;53.020;6.598;2023-04-24T11:42:24;9.93;;;3.10;;
52186;SDS011;38161;53.020;6.598;2023-04-24T11:44:53;8.73;;;3.03;;
52186;SDS011;38161;53.020;6.598;2023-04-24T11:47:28;10.90;;;3.10;;
52186;SDS011;38161;53.020;6.598;2023-04-24T11:49:55;9.23;;;3.15;;
52186;SDS011;38161;53.020;6.598;2023-04-24T11:52:21;9.27;;;2.80;;
52186;SDS011;38161;53.020;6.598;2023-04-24T11:54:47;4.55;;;2.28;;
52186;SDS011;38161;53.020;6.598;2023-04-24T11:57:14;9.65;;;2.42;;
52186;SDS011;38161;53.020;6.598;2023-04-24T11:59:40;8.10;;;1.60;;
52186;SDS011;38161;53.020;6.598;2023-04-24T12:02:06;5.22;;;1.90;;
52186;SDS011;38161;53.020;6.598;2023-04-24T12:04:39;5.33;;;1.90;;
52186;SDS011;38161;53.020;6.598;2023-04-24T12:07:06;4.72;;;1.70;;
52186;SDS011;38161;53.020;6.598;2023-04-24T12:12:10;3.65;;;1.75;;
52186;SDS011;38161;53.020;6.598;2023-04-24T12:19:45;6.63;;;1.90;;
52186;SDS011;38161;53.020;6.598;2023-04-24T12:22:12;5.35;;;1.80;;
52186;SDS011;38161;53.020;6.598;2023-04-24T12:24:58;3.80;;;1.50;;
52186;SDS011;38161;53.020;6.598;2023-04-24T12:27:29;7.35;;;1.98;;
52186;SDS011;38161;53.020;6.598;2023-04-24T12:29:59;8.75;;;2.13;;
52186;SDS011;38161;53.020;6.598;2023-04-24T12:32:27;8.55;;;2.33;;
52186;SDS011;38161;53.020;6.598;2023-04-24T12:34:53;7.35;;;2.03;;
52186;SDS011;38161;53.020;6.598;2023-04-24T12:37:20;7.13;;;2.22;;
52186;SDS011;38161;53.020;6.598;2023-04-24T12:40:07;8.73;;;2.50;;
52186;SDS011;38161;53.020;6.598;2023-04-24T12:42:35;4.80;;;1.67;;
52186;SDS011;38161;53.020;6.598;2023-04-24T12:45:02;6.00;;;2.05;;
52186;SDS011;38161;53.020;6.598;2023-04-24T12:47:33;7.75;;;1.80;;
52186;SDS011;38161;53.020;6.598;2023-04-24T12:50:00;4.43;;;1.60;;
52186;SDS011;38161;53.020;6.598;2023-04-24T12:52:27;9.05;;;1.80;;
52186;SDS011;38161;53.020;6.598;2023-04-24T12:54:55;6.97;;;2.00;;
52186;SDS011;38161;53.020;6.598;2023-04-24T12:57:23;4.75;;;1.80;;
52186;SDS011;38161;53.020;6.598;2023-04-24T12:59:50;9.82;;;2.13;;
52186;SDS011;38161;53.020;6.598;2023-04-24T13:02:18;7.82;;;1.90;;
52186;SDS011;38161;53.020;6.598;2023-04-24T13:04:44;4.93;;;1.70;;
52186;SDS011;38161;53.020;6.598;2023-04-24T13:07:12;6.20;;;1.73;;
52186;SDS011;38161;53.020;6.598;2023-04-24T13:09:39;5.28;;;1.65;;
52186;SDS011;38161;53.020;6.598;2023-04-24T13:12:05;4.20;;;1.60;;
52186;SDS011;38161;53.020;6.598;2023-04-24T13:14:32;5.07;;;1.48;;
52186;SDS011;38161;53.020;6.598;2023-04-24T13:16:58;9.98;;;1.58;;
52186;SDS011;38161;53.020;6.598;2023-04-24T13:19:24;6.67;;;1.47;;
52186;SDS011;38161;53.020;6.598;2023-04-24T13:21:54;5.65;;;1.27;;
52186;SDS011;38161;53.020;6.598;2023-04-24T13:24:21;6.65;;;1.23;;
52186;SDS011;38161;53.020;6.598;2023-04-24T13:26:50;11.57;;;1.40;;
52186;SDS011;38161;53.020;6.598;2023-04-24T13:29:16;9.50;;;1.45;;
52186;SDS011;38161;53.020;6.598;2023-04-24T13:31:42;5.88;;;1.38;;
52186;SDS011;38161;53.020;6.598;2023-04-24T13:34:08;5.85;;;1.23;;
52186;SDS011;38161;53.020;6.598;2023-04-24T13:36:34;5.90;;;1.08;;
52186;SDS011;38161;53.020;6.598;2023-04-24T13:39:00;1.88;;;0.80;;
52186;SDS011;38161;53.020;6.598;2023-04-24T13:41:28;3.35;;;1.20;;
52186;SDS011;38161;53.020;6.598;2023-04-24T13:43:54;3.95;;;1.27;;
52186;SDS011;38161;53.020;6.598;2023-04-24T13:46:20;4.93;;;1.02;;
52186;SDS011;38161;53.020;6.598;2023-04-24T13:48:46;1.77;;;0.80;;
52186;SDS011;38161;53.020;6.598;2023-04-24T13:51:11;4.53;;;0.73;;
52186;SDS011;38161;53.020;6.598;2023-04-24T13:53:37;1.77;;;0.90;;
52186;SDS011;38161;53.020;6.598;2023-04-24T13:56:04;1.90;;;0.65;;
52186;SDS011;38161;53.020;6.598;2023-04-24T13:58:34;2.00;;;0.77;;
52186;SDS011;38161;53.020;6.598;2023-04-24T14:01:02;3.20;;;0.90;;
52186;SDS011;38161;53.020;6.598;2023-04-24T14:03:28;5.25;;;1.00;;
52186;SDS011;38161;53.020;6.598;2023-04-24T14:05:54;2.05;;;0.65;;
52186;SDS011;38161;53.020;6.598;2023-04-24T14:08:20;5.55;;;0.90;;
52186;SDS011;38161;53.020;6.598;2023-04-24T14:10:46;4.63;;;1.10;;
52186;SDS011;38161;53.020;6.598;2023-04-24T14:13:12;5.93;;;1.25;;
52186;SDS011;38161;53.020;6.598;2023-04-24T14:15:38;5.53;;;1.08;;
52186;SDS011;38161;53.020;6.598;2023-04-24T14:18:04;2.63;;;1.08;;
52186;SDS011;38161;53.020;6.598;2023-04-24T14:20:30;7.32;;;1.10;;
52186;SDS011;38161;53.020;6.598;2023-04-24T14:22:57;5.43;;;1.27;;
52186;SDS011;38161;53.020;6.598;2023-04-24T14:25:26;5.30;;;1.67;;
52186;SDS011;38161;53.020;6.598;2023-04-24T14:27:51;6.57;;;1.30;;
52186;SDS011;38161;53.020;6.598;2023-04-24T14:30:18;6.30;;;1.35;;
52186;SDS011;38161;53.020;6.598;2023-04-24T14:32:44;9.32;;;2.35;;
52186;SDS011;38161;53.020;6.598;2023-04-24T14:35:10;5.18;;;1.27;;
52186;SDS011;38161;53.020;6.598;2023-04-24T14:37:35;10.87;;;1.67;;
52186;SDS011;38161;53.020;6.598;2023-04-24T14:40:02;7.13;;;1.63;;
52186;SDS011;38161;53.020;6.598;2023-04-24T14:42:30;9.18;;;1.85;;
52186;SDS011;38161;53.020;6.598;2023-04-24T14:44:56;11.83;;;1.90;;
52186;SDS011;38161;53.020;6.598;2023-04-24T14:47:21;13.10;;;2.03;;
52186;SDS011;38161;53.020;6.598;2023-04-24T14:49:50;8.33;;;1.77;;
52186;SDS011;38161;53.020;6.598;2023-04-24T14:52:16;10.00;;;2.08;;
52186;SDS011;38161;53.020;6.598;2023-04-24T14:54:42;7.03;;;1.97;;
52186;SDS011;38161;53.020;6.598;2023-04-24T14:57:08;8.02;;;2.40;;
52186;SDS011;38161;53.020;6.598;2023-04-24T14:59:34;7.40;;;2.38;;
52186;SDS011;38161;53.020;6.598;2023-04-24T15:02:00;6.00;;;2.17;;
52186;SDS011;38161;53.020;6.598;2023-04-24T15:04:27;9.75;;;2.78;;
52186;SDS011;38161;53.020;6.598;2023-04-24T15:06:53;8.95;;;2.97;;
52186;SDS011;38161;53.020;6.598;2023-04-24T15:09:20;8.10;;;2.85;;
52186;SDS011;38161;53.020;6.598;2023-04-24T15:11:47;9.23;;;2.90;;
52186;SDS011;38161;53.020;6.598;2023-04-24T15:14:15;7.80;;;2.60;;
52186;SDS011;38161;53.020;6.598;2023-04-24T15:16:41;10.38;;;3.03;;
52186;SDS011;38161;53.020;6.598;2023-04-24T15:19:07;9.32;;;3.15;;
52186;SDS011;38161;53.020;6.598;2023-04-24T15:21:33;10.18;;;3.47;;
52186;SDS011;38161;53.020;6.598;2023-04-24T15:23:59;10.48;;;3.33;;